sensor_id;sensor_type;location;lat;lon;timestamp;P1;durP1;ratioP1;P2;durP2;ratioP2
84189;SDS011;74321;53.406;8.146;2023-12-29T00:00:28;8.77;;;2.30;;
84189;SDS011;74321;53.406;8.146;2023-12-29T00:05:30;7.03;;;1.95;;
84189;SDS011;74321;53.406;8.146;2023-12-29T00:10:32;11.25;;;2.10;;
84189;SDS011;74321;53.406;8.146;2023-12-29T00:15:34;5.03;;;1.67;;
84189;SDS011;74321;53.406;8.146;2023-12-29T00:20:36;10.75;;;1.88;;
84189;SDS011;74321;53.406;8.146;2023-12-29T00:25:42;9.00;;;2.05;;
84189;SDS011;74321;53.406;8.146;2023-12-29T00:30:44;9.98;;;1.92;;
84189;SDS011;74321;53.406;8.146;2023-12-29T00:36:01;9.90;;;2.00;;
84189;SDS011;74321;53.406;8.146;2023-12-29T00:41:04;6.03;;;1.73;;
84189;SDS011;74321;53.406;8.146;2023-12-29T00:46:07;9.68;;;2.22;;
84189;SDS011;74321;53.406;8.146;2023-12-29T00:51:10;6.50;;;2.20;;
84189;SDS011;74321;53.406;8.146;2023-12-29T00:56:12;7.65;;;2.33;;
84189;SDS011;74321;53.406;8.146;2023-12-29T01:01:14;8.85;;;2.75;;
84189;SDS011;74321;53.406;8.146;2023-12-29T01:06:17;11.07;;;2.15;;
84189;SDS011;74321;53.406;8.146;2023-12-29T01:11:19;10.18;;;2.05;;
84189;SDS011;74321;53.406;8.146;2023-12-29T01:16:21;10.43;;;2.05;;
84189;SDS011;74321;53.406;8.146;2023-12-29T01:21:24;10.15;;;1.50;;
84189;SDS011;74321;53.406;8.146;2023-12-29T01:26:26;9.30;;;1.67;;
84189;SDS011;74321;53.406;8.146;2023-12-29T01:31:29;8.02;;;1.60;;
84189;SDS011;74321;53.406;8.146;2023-12-29T01:36:32;7.72;;;1.80;;
84189;SDS011;74321;53.406;8.146;2023-12-29T01:41:34;9.18;;;2.35;;
84189;SDS011;74321;53.406;8.146;2023-12-29T01:46:36;4.10;;;1.88;;
84189;SDS011;74321;53.406;8.146;2023-12-29T01:51:38;9.73;;;2.08;;
84189;SDS011;74321;53.406;8.146;2023-12-29T01:56:41;6.47;;;1.90;;
84189;SDS011;74321;53.406;8.146;2023-12-29T02:01:44;4.68;;;2.08;;
84189;SDS011;74321;53.406;8.146;2023-12-29T02:06:47;7.05;;;1.48;;
84189;SDS011;74321;53.406;8.146;2023-12-29T02:11:49;7.47;;;1.20;;
84189;SDS011;74321;53.406;8.146;2023-12-29T02:17:10;4.57;;;1.40;;
84189;SDS011;74321;53.406;8.146;2023-12-29T02:22:18;8.05;;;1.60;;
84189;SDS011;74321;53.406;8.146;2023-12-29T02:32:29;4.47;;;1.13;;
84189;SDS011;74321;53.406;8.146;2023-12-29T02:37:32;4.38;;;1.15;;
84189;SDS011;74321;53.406;8.146;2023-12-29T02:42:37;17.15;;;1.83;;
84189;SDS011;74321;53.406;8.146;2023-12-29T02:47:39;7.32;;;1.55;;
84189;SDS011;74321;53.406;8.146;2023-12-29T02:52:43;7.43;;;0.70;;
84189;SDS011;74321;53.406;8.146;2023-12-29T02:57:45;3.38;;;0.63;;
84189;SDS011;74321;53.406;8.146;2023-12-29T03:02:47;2.58;;;0.75;;
84189;SDS011;74321;53.406;8.146;2023-12-29T03:07:50;0.63;;;0.60;;
84189;SDS011;74321;53.406;8.146;2023-12-29T03:12:52;5.70;;;0.43;;
84189;SDS011;74321;53.406;8.146;2023-12-29T03:17:54;2.72;;;0.40;;
84189;SDS011;74321;53.406;8.146;2023-12-29T03:22:56;1.65;;;0.50;;
84189;SDS011;74321;53.406;8.146;2023-12-29T03:27:58;1.88;;;0.30;;
84189;SDS011;74321;53.406;8.146;2023-12-29T03:33:02;4.13;;;0.52;;
84189;SDS011;74321;53.406;8.146;2023-12-29T03:43:09;3.10;;;0.60;;
84189;SDS011;74321;53.406;8.146;2023-12-29T03:48:11;5.65;;;0.90;;
84189;SDS011;74321;53.406;8.146;2023-12-29T03:53:14;2.67;;;0.60;;
84189;SDS011;74321;53.406;8.146;2023-12-29T03:58:16;6.25;;;1.83;;
84189;SDS011;74321;53.406;8.146;2023-12-29T04:03:18;8.05;;;1.20;;
84189;SDS011;74321;53.406;8.146;2023-12-29T04:08:20;9.80;;;1.70;;
84189;SDS011;74321;53.406;8.146;2023-12-29T04:13:22;5.10;;;1.50;;
84189;SDS011;74321;53.406;8.146;2023-12-29T04:18:24;9.27;;;1.52;;
84189;SDS011;74321;53.406;8.146;2023-12-29T04:23:27;6.70;;;1.45;;
84189;SDS011;74321;53.406;8.146;2023-12-29T04:28:30;7.93;;;1.30;;
84189;SDS011;74321;53.406;8.146;2023-12-29T04:33:32;7.57;;;1.73;;
84189;SDS011;74321;53.406;8.146;2023-12-29T04:38:34;8.27;;;1.00;;
84189;SDS011;74321;53.406;8.146;2023-12-29T04:43:36;13.32;;;2.20;;
84189;SDS011;74321;53.406;8.146;2023-12-29T04:48:38;8.52;;;1.65;;
84189;SDS011;74321;53.406;8.146;2023-12-29T04:53:40;5.60;;;1.35;;
84189;SDS011;74321;53.406;8.146;2023-12-29T04:58:42;14.07;;;2.13;;
84189;SDS011;74321;53.406;8.146;2023-12-29T05:03:44;12.40;;;1.77;;
84189;SDS011;74321;53.406;8.146;2023-12-29T05:08:46;8.07;;;2.15;;
84189;SDS011;74321;53.406;8.146;2023-12-29T05:13:48;14.80;;;2.85;;
84189;SDS011;74321;53.406;8.146;2023-12-29T05:18:50;10.75;;;2.38;;
84189;SDS011;74321;53.406;8.146;2023-12-29T05:23:52;9.82;;;1.80;;
84189;SDS011;74321;53.406;8.146;2023-12-29T05:28:54;16.55;;;2.30;;
84189;SDS011;74321;53.406;8.146;2023-12-29T05:33:56;11.65;;;3.00;;
84189;SDS011;74321;53.406;8.146;2023-12-29T05:38:58;15.75;;;2.10;;
84189;SDS011;74321;53.406;8.146;2023-12-29T05:44:00;15.40;;;2.67;;
84189;SDS011;74321;53.406;8.146;2023-12-29T05:49:02;14.52;;;2.08;;
84189;SDS011;74321;53.406;8.146;2023-12-29T05:54:04;12.48;;;1.90;;
84189;SDS011;74321;53.406;8.146;2023-12-29T05:59:07;10.32;;;1.60;;
84189;SDS011;74321;53.406;8.146;2023-12-29T06:04:09;13.77;;;2.25;;
84189;SDS011;74321;53.406;8.146;2023-12-29T06:09:11;11.95;;;1.85;;
84189;SDS011;74321;53.406;8.146;2023-12-29T06:14:13;15.00;;;2.58;;
84189;SDS011;74321;53.406;8.146;2023-12-29T06:19:16;11.52;;;2.17;;
84189;SDS011;74321;53.406;8.146;2023-12-29T06:24:18;9.40;;;1.88;;
84189;SDS011;74321;53.406;8.146;2023-12-29T06:29:20;7.78;;;2.08;;
84189;SDS011;74321;53.406;8.146;2023-12-29T06:34:22;20.02;;;2.28;;
84189;SDS011;74321;53.406;8.146;2023-12-29T06:39:24;10.98;;;2.05;;
84189;SDS011;74321;53.406;8.146;2023-12-29T06:44:26;14.60;;;1.98;;
84189;SDS011;74321;53.406;8.146;2023-12-29T06:49:28;14.77;;;2.25;;
84189;SDS011;74321;53.406;8.146;2023-12-29T06:54:30;10.27;;;1.77;;
84189;SDS011;74321;53.406;8.146;2023-12-29T06:59:33;14.23;;;2.03;;
84189;SDS011;74321;53.406;8.146;2023-12-29T07:04:35;24.50;;;2.78;;
84189;SDS011;74321;53.406;8.146;2023-12-29T07:09:40;16.58;;;1.70;;
84189;SDS011;74321;53.406;8.146;2023-12-29T07:14:42;12.95;;;2.60;;
84189;SDS011;74321;53.406;8.146;2023-12-29T07:19:44;9.65;;;1.42;;
84189;SDS011;74321;53.406;8.146;2023-12-29T07:24:46;7.28;;;1.38;;
84189;SDS011;74321;53.406;8.146;2023-12-29T07:29:48;12.48;;;1.60;;
84189;SDS011;74321;53.406;8.146;2023-12-29T07:34:50;3.67;;;1.38;;
84189;SDS011;74321;53.406;8.146;2023-12-29T07:39:53;6.93;;;1.17;;
84189;SDS011;74321;53.406;8.146;2023-12-29T07:44:55;5.70;;;1.38;;
84189;SDS011;74321;53.406;8.146;2023-12-29T07:49:59;7.70;;;1.88;;
84189;SDS011;74321;53.406;8.146;2023-12-29T07:55:01;6.50;;;1.23;;
84189;SDS011;74321;53.406;8.146;2023-12-29T08:00:03;10.43;;;1.60;;
84189;SDS011;74321;53.406;8.146;2023-12-29T08:05:12;5.78;;;1.40;;
84189;SDS011;74321;53.406;8.146;2023-12-29T08:10:14;8.88;;;1.60;;
84189;SDS011;74321;53.406;8.146;2023-12-29T08:15:16;13.77;;;2.13;;
84189;SDS011;74321;53.406;8.146;2023-12-29T08:20:18;9.45;;;1.80;;
84189;SDS011;74321;53.406;8.146;2023-12-29T08:25:22;24.80;;;3.10;;
84189;SDS011;74321;53.406;8.146;2023-12-29T08:30:25;12.25;;;2.10;;
84189;SDS011;74321;53.406;8.146;2023-12-29T08:35:27;15.40;;;2.03;;
84189;SDS011;74321;53.406;8.146;2023-12-29T08:40:29;13.35;;;1.83;;
84189;SDS011;74321;53.406;8.146;2023-12-29T08:45:31;7.47;;;0.88;;
84189;SDS011;74321;53.406;8.146;2023-12-29T08:50:33;13.43;;;2.10;;
84189;SDS011;74321;53.406;8.146;2023-12-29T08:55:35;11.88;;;1.40;;
84189;SDS011;74321;53.406;8.146;2023-12-29T09:00:37;4.97;;;1.23;;
84189;SDS011;74321;53.406;8.146;2023-12-29T09:05:39;9.02;;;1.48;;
84189;SDS011;74321;53.406;8.146;2023-12-29T09:10:42;15.70;;;2.70;;
84189;SDS011;74321;53.406;8.146;2023-12-29T09:15:44;14.70;;;2.08;;
84189;SDS011;74321;53.406;8.146;2023-12-29T09:20:49;15.77;;;2.97;;
84189;SDS011;74321;53.406;8.146;2023-12-29T09:25:51;26.08;;;4.43;;
84189;SDS011;74321;53.406;8.146;2023-12-29T09:30:53;17.48;;;2.08;;
84189;SDS011;74321;53.406;8.146;2023-12-29T09:35:55;19.35;;;2.30;;
84189;SDS011;74321;53.406;8.146;2023-12-29T09:40:59;12.95;;;2.13;;
84189;SDS011;74321;53.406;8.146;2023-12-29T09:46:08;11.10;;;2.08;;
84189;SDS011;74321;53.406;8.146;2023-12-29T09:51:11;8.52;;;1.67;;
84189;SDS011;74321;53.406;8.146;2023-12-29T09:56:14;16.27;;;2.58;;
84189;SDS011;74321;53.406;8.146;2023-12-29T10:01:17;14.98;;;2.53;;
84189;SDS011;74321;53.406;8.146;2023-12-29T10:06:24;18.80;;;2.70;;
84189;SDS011;74321;53.406;8.146;2023-12-29T10:11:26;11.32;;;1.88;;
84189;SDS011;74321;53.406;8.146;2023-12-29T10:16:41;14.55;;;1.70;;
84189;SDS011;74321;53.406;8.146;2023-12-29T10:21:57;16.08;;;2.05;;
84189;SDS011;74321;53.406;8.146;2023-12-29T10:27:08;9.25;;;1.83;;
84189;SDS011;74321;53.406;8.146;2023-12-29T10:32:11;12.80;;;2.00;;
84189;SDS011;74321;53.406;8.146;2023-12-29T10:37:13;24.92;;;2.20;;
84189;SDS011;74321;53.406;8.146;2023-12-29T10:47:26;13.63;;;2.30;;
84189;SDS011;74321;53.406;8.146;2023-12-29T10:52:28;4.63;;;1.65;;
84189;SDS011;74321;53.406;8.146;2023-12-29T10:57:30;9.10;;;2.03;;
84189;SDS011;74321;53.406;8.146;2023-12-29T11:02:34;8.35;;;1.95;;
84189;SDS011;74321;53.406;8.146;2023-12-29T11:07:40;10.50;;;1.63;;
84189;SDS011;74321;53.406;8.146;2023-12-29T11:12:43;10.27;;;1.73;;
84189;SDS011;74321;53.406;8.146;2023-12-29T11:17:49;10.32;;;1.33;;
84189;SDS011;74321;53.406;8.146;2023-12-29T11:22:54;9.93;;;2.85;;
84189;SDS011;74321;53.406;8.146;2023-12-29T11:27:56;8.98;;;1.60;;
84189;SDS011;74321;53.406;8.146;2023-12-29T11:33:00;11.45;;;2.03;;
84189;SDS011;74321;53.406;8.146;2023-12-29T11:43:30;13.60;;;2.63;;
84189;SDS011;74321;53.406;8.146;2023-12-29T11:54:03;7.40;;;1.25;;
84189;SDS011;74321;53.406;8.146;2023-12-29T11:59:19;10.32;;;1.75;;
84189;SDS011;74321;53.406;8.146;2023-12-29T12:09:41;9.18;;;1.70;;
84189;SDS011;74321;53.406;8.146;2023-12-29T12:19:51;3.42;;;1.20;;
84189;SDS011;74321;53.406;8.146;2023-12-29T12:24:55;14.68;;;1.50;;
84189;SDS011;74321;53.406;8.146;2023-12-29T12:29:59;12.30;;;1.58;;
84189;SDS011;74321;53.406;8.146;2023-12-29T12:35:01;13.07;;;1.75;;
84189;SDS011;74321;53.406;8.146;2023-12-29T12:45:13;7.63;;;1.65;;
84189;SDS011;74321;53.406;8.146;2023-12-29T12:50:21;12.93;;;1.70;;
84189;SDS011;74321;53.406;8.146;2023-12-29T12:55:24;13.52;;;1.67;;
84189;SDS011;74321;53.406;8.146;2023-12-29T13:00:27;10.48;;;2.05;;
84189;SDS011;74321;53.406;8.146;2023-12-29T13:05:31;9.70;;;1.70;;
84189;SDS011;74321;53.406;8.146;2023-12-29T13:10:42;6.30;;;1.10;;
84189;SDS011;74321;53.406;8.146;2023-12-29T13:15:48;5.38;;;1.52;;
84189;SDS011;74321;53.406;8.146;2023-12-29T13:20:52;8.50;;;1.20;;
84189;SDS011;74321;53.406;8.146;2023-12-29T13:25:57;5.82;;;1.77;;
84189;SDS011;74321;53.406;8.146;2023-12-29T13:31:09;7.93;;;1.10;;
84189;SDS011;74321;53.406;8.146;2023-12-29T13:41:23;11.00;;;1.15;;
84189;SDS011;74321;53.406;8.146;2023-12-29T13:46:29;9.85;;;1.20;;
84189;SDS011;74321;53.406;8.146;2023-12-29T13:51:32;5.13;;;0.90;;
84189;SDS011;74321;53.406;8.146;2023-12-29T13:56:34;9.00;;;1.20;;
84189;SDS011;74321;53.406;8.146;2023-12-29T14:01:37;9.48;;;1.10;;
84189;SDS011;74321;53.406;8.146;2023-12-29T14:06:50;11.07;;;1.20;;
84189;SDS011;74321;53.406;8.146;2023-12-29T14:11:57;8.10;;;1.52;;
84189;SDS011;74321;53.406;8.146;2023-12-29T14:16:59;8.60;;;1.50;;
84189;SDS011;74321;53.406;8.146;2023-12-29T14:22:01;10.23;;;1.40;;
84189;SDS011;74321;53.406;8.146;2023-12-29T14:27:04;8.85;;;1.40;;
84189;SDS011;74321;53.406;8.146;2023-12-29T14:32:13;11.25;;;1.77;;
84189;SDS011;74321;53.406;8.146;2023-12-29T14:37:15;9.13;;;1.95;;
84189;SDS011;74321;53.406;8.146;2023-12-29T14:42:17;8.63;;;1.30;;
84189;SDS011;74321;53.406;8.146;2023-12-29T14:47:23;5.28;;;1.05;;
84189;SDS011;74321;53.406;8.146;2023-12-29T14:52:26;15.82;;;2.40;;
84189;SDS011;74321;53.406;8.146;2023-12-29T14:57:28;15.93;;;1.80;;
84189;SDS011;74321;53.406;8.146;2023-12-29T15:02:30;12.25;;;1.33;;
84189;SDS011;74321;53.406;8.146;2023-12-29T15:07:32;6.53;;;1.13;;
84189;SDS011;74321;53.406;8.146;2023-12-29T15:12:34;11.57;;;1.10;;
84189;SDS011;74321;53.406;8.146;2023-12-29T15:17:36;16.02;;;2.38;;
84189;SDS011;74321;53.406;8.146;2023-12-29T15:22:39;8.70;;;1.38;;
84189;SDS011;74321;53.406;8.146;2023-12-29T15:27:41;12.20;;;1.30;;
84189;SDS011;74321;53.406;8.146;2023-12-29T15:32:44;5.47;;;1.10;;
84189;SDS011;74321;53.406;8.146;2023-12-29T15:37:47;13.23;;;1.48;;
84189;SDS011;74321;53.406;8.146;2023-12-29T15:42:49;20.60;;;1.90;;
84189;SDS011;74321;53.406;8.146;2023-12-29T15:47:51;10.07;;;1.30;;
84189;SDS011;74321;53.406;8.146;2023-12-29T15:52:53;10.73;;;1.48;;
84189;SDS011;74321;53.406;8.146;2023-12-29T15:57:55;7.28;;;1.40;;
84189;SDS011;74321;53.406;8.146;2023-12-29T16:02:57;7.60;;;1.23;;
84189;SDS011;74321;53.406;8.146;2023-12-29T16:07:59;13.52;;;1.67;;
84189;SDS011;74321;53.406;8.146;2023-12-29T16:13:02;12.98;;;1.92;;
84189;SDS011;74321;53.406;8.146;2023-12-29T16:18:04;5.50;;;1.02;;
84189;SDS011;74321;53.406;8.146;2023-12-29T16:23:06;8.13;;;1.60;;
84189;SDS011;74321;53.406;8.146;2023-12-29T16:28:09;6.18;;;1.33;;
84189;SDS011;74321;53.406;8.146;2023-12-29T16:33:11;6.90;;;1.33;;
84189;SDS011;74321;53.406;8.146;2023-12-29T16:38:13;15.63;;;1.45;;
84189;SDS011;74321;53.406;8.146;2023-12-29T16:43:16;8.35;;;1.65;;
84189;SDS011;74321;53.406;8.146;2023-12-29T16:48:18;5.68;;;1.05;;
84189;SDS011;74321;53.406;8.146;2023-12-29T16:53:20;10.10;;;1.30;;
84189;SDS011;74321;53.406;8.146;2023-12-29T16:58:24;13.20;;;1.90;;
84189;SDS011;74321;53.406;8.146;2023-12-29T17:03:26;8.80;;;1.08;;
84189;SDS011;74321;53.406;8.146;2023-12-29T17:08:29;9.20;;;1.35;;
84189;SDS011;74321;53.406;8.146;2023-12-29T17:13:31;7.55;;;1.05;;
84189;SDS011;74321;53.406;8.146;2023-12-29T17:18:36;13.95;;;2.63;;
84189;SDS011;74321;53.406;8.146;2023-12-29T17:23:48;8.20;;;1.45;;
84189;SDS011;74321;53.406;8.146;2023-12-29T17:28:50;9.68;;;1.40;;
84189;SDS011;74321;53.406;8.146;2023-12-29T17:34:04;9.70;;;1.98;;
84189;SDS011;74321;53.406;8.146;2023-12-29T17:39:06;7.78;;;1.42;;
84189;SDS011;74321;53.406;8.146;2023-12-29T17:44:09;7.47;;;2.22;;
84189;SDS011;74321;53.406;8.146;2023-12-29T17:49:11;6.75;;;2.15;;
84189;SDS011;74321;53.406;8.146;2023-12-29T17:54:13;12.90;;;1.88;;
84189;SDS011;74321;53.406;8.146;2023-12-29T17:59:15;7.25;;;1.30;;
84189;SDS011;74321;53.406;8.146;2023-12-29T18:04:17;7.15;;;1.42;;
84189;SDS011;74321;53.406;8.146;2023-12-29T18:09:19;9.50;;;2.05;;
84189;SDS011;74321;53.406;8.146;2023-12-29T18:14:21;9.13;;;1.52;;
84189;SDS011;74321;53.406;8.146;2023-12-29T18:19:23;11.15;;;1.70;;
84189;SDS011;74321;53.406;8.146;2023-12-29T18:24:26;7.57;;;1.92;;
84189;SDS011;74321;53.406;8.146;2023-12-29T18:29:28;6.45;;;1.85;;
84189;SDS011;74321;53.406;8.146;2023-12-29T18:34:30;5.88;;;1.42;;
84189;SDS011;74321;53.406;8.146;2023-12-29T18:39:32;11.10;;;2.15;;
84189;SDS011;74321;53.406;8.146;2023-12-29T18:44:39;9.93;;;1.50;;
84189;SDS011;74321;53.406;8.146;2023-12-29T18:49:41;12.32;;;2.10;;
84189;SDS011;74321;53.406;8.146;2023-12-29T18:54:43;6.60;;;1.58;;
84189;SDS011;74321;53.406;8.146;2023-12-29T18:59:48;9.13;;;1.52;;
84189;SDS011;74321;53.406;8.146;2023-12-29T19:04:50;8.23;;;1.58;;
84189;SDS011;74321;53.406;8.146;2023-12-29T19:09:52;11.80;;;1.30;;
84189;SDS011;74321;53.406;8.146;2023-12-29T19:14:54;7.20;;;1.20;;
84189;SDS011;74321;53.406;8.146;2023-12-29T19:19:56;7.15;;;1.63;;
84189;SDS011;74321;53.406;8.146;2023-12-29T19:24:58;3.80;;;0.95;;
84189;SDS011;74321;53.406;8.146;2023-12-29T19:30:01;8.25;;;1.02;;
84189;SDS011;74321;53.406;8.146;2023-12-29T19:35:03;5.20;;;1.98;;
84189;SDS011;74321;53.406;8.146;2023-12-29T19:40:06;4.75;;;1.58;;
84189;SDS011;74321;53.406;8.146;2023-12-29T19:45:08;5.63;;;1.38;;
84189;SDS011;74321;53.406;8.146;2023-12-29T19:50:15;7.93;;;1.05;;
84189;SDS011;74321;53.406;8.146;2023-12-29T19:55:17;4.57;;;1.10;;
84189;SDS011;74321;53.406;8.146;2023-12-29T20:00:19;2.55;;;0.60;;
84189;SDS011;74321;53.406;8.146;2023-12-29T20:05:21;7.47;;;0.90;;
84189;SDS011;74321;53.406;8.146;2023-12-29T20:10:26;2.78;;;0.50;;
84189;SDS011;74321;53.406;8.146;2023-12-29T20:15:29;4.55;;;1.00;;
84189;SDS011;74321;53.406;8.146;2023-12-29T20:20:31;1.90;;;0.60;;
84189;SDS011;74321;53.406;8.146;2023-12-29T20:25:34;2.58;;;0.55;;
84189;SDS011;74321;53.406;8.146;2023-12-29T20:30:36;7.22;;;1.02;;
84189;SDS011;74321;53.406;8.146;2023-12-29T20:35:38;2.42;;;0.73;;
84189;SDS011;74321;53.406;8.146;2023-12-29T20:40:44;3.10;;;0.82;;
84189;SDS011;74321;53.406;8.146;2023-12-29T20:45:46;3.38;;;0.65;;
84189;SDS011;74321;53.406;8.146;2023-12-29T20:50:48;6.50;;;1.02;;
84189;SDS011;74321;53.406;8.146;2023-12-29T20:55:55;3.17;;;0.70;;
84189;SDS011;74321;53.406;8.146;2023-12-29T21:00:57;2.85;;;1.00;;
84189;SDS011;74321;53.406;8.146;2023-12-29T21:05:59;4.35;;;0.80;;
84189;SDS011;74321;53.406;8.146;2023-12-29T21:11:01;2.17;;;0.70;;
84189;SDS011;74321;53.406;8.146;2023-12-29T21:16:10;3.88;;;1.08;;
84189;SDS011;74321;53.406;8.146;2023-12-29T21:26:20;3.90;;;0.55;;
84189;SDS011;74321;53.406;8.146;2023-12-29T21:31:24;4.70;;;0.98;;
84189;SDS011;74321;53.406;8.146;2023-12-29T21:36:26;3.42;;;0.60;;
84189;SDS011;74321;53.406;8.146;2023-12-29T21:46:39;2.22;;;1.08;;
84189;SDS011;74321;53.406;8.146;2023-12-29T21:51:42;3.83;;;1.17;;
84189;SDS011;74321;53.406;8.146;2023-12-29T21:56:44;3.53;;;0.85;;
84189;SDS011;74321;53.406;8.146;2023-12-29T22:01:47;6.22;;;1.08;;
84189;SDS011;74321;53.406;8.146;2023-12-29T22:06:50;4.13;;;0.73;;
84189;SDS011;74321;53.406;8.146;2023-12-29T22:11:52;4.93;;;0.85;;
84189;SDS011;74321;53.406;8.146;2023-12-29T22:16:55;4.53;;;1.02;;
84189;SDS011;74321;53.406;8.146;2023-12-29T22:21:57;2.95;;;1.15;;
84189;SDS011;74321;53.406;8.146;2023-12-29T22:27:02;6.55;;;1.00;;
84189;SDS011;74321;53.406;8.146;2023-12-29T22:32:04;4.85;;;1.42;;
84189;SDS011;74321;53.406;8.146;2023-12-29T22:37:06;3.72;;;1.05;;
84189;SDS011;74321;53.406;8.146;2023-12-29T22:42:09;4.72;;;0.80;;
84189;SDS011;74321;53.406;8.146;2023-12-29T22:47:10;3.20;;;0.57;;
84189;SDS011;74321;53.406;8.146;2023-12-29T22:52:12;6.35;;;0.82;;
84189;SDS011;74321;53.406;8.146;2023-12-29T22:57:14;3.95;;;0.98;;
84189;SDS011;74321;53.406;8.146;2023-12-29T23:02:17;6.65;;;1.00;;
84189;SDS011;74321;53.406;8.146;2023-12-29T23:07:19;7.97;;;1.25;;
84189;SDS011;74321;53.406;8.146;2023-12-29T23:12:22;3.65;;;0.95;;
84189;SDS011;74321;53.406;8.146;2023-12-29T23:17:24;7.35;;;1.30;;
84189;SDS011;74321;53.406;8.146;2023-12-29T23:22:26;3.03;;;0.90;;
84189;SDS011;74321;53.406;8.146;2023-12-29T23:27:28;6.15;;;1.65;;
84189;SDS011;74321;53.406;8.146;2023-12-29T23:32:30;3.22;;;1.40;;
84189;SDS011;74321;53.406;8.146;2023-12-29T23:37:32;5.30;;;1.20;;
84189;SDS011;74321;53.406;8.146;2023-12-29T23:42:35;3.88;;;1.23;;
84189;SDS011;74321;53.406;8.146;2023-12-29T23:47:38;3.55;;;0.90;;
84189;SDS011;74321;53.406;8.146;2023-12-29T23:52:40;2.85;;;1.00;;
84189;SDS011;74321;53.406;8.146;2023-12-29T23:57:42;3.35;;;0.65;;
